sensor_id;sensor_type;location;lat;lon;timestamp;pressure;altitude;pressure_sealevel;temperature;humidity
70015;BME280;57358;51.094;6.760;2022-10-31T00:01:45;101647.97;;;12.32;100.00
70015;BME280;57358;51.094;6.760;2022-10-31T00:04:11;101644.47;;;12.31;100.00
70015;BME280;57358;51.094;6.760;2022-10-31T00:06:38;101656.06;;;12.27;100.00
70015;BME280;57358;51.094;6.760;2022-10-31T00:09:05;101636.72;;;12.08;100.00
70015;BME280;57358;51.094;6.760;2022-10-31T00:11:31;101660.66;;;12.22;100.00
70015;BME280;57358;51.094;6.760;2022-10-31T00:13:58;101619.84;;;11.93;100.00
70015;BME280;57358;51.094;6.760;2022-10-31T00:16:26;101598.56;;;11.77;100.00
70015;BME280;57358;51.094;6.760;2022-10-31T00:18:58;101652.47;;;12.09;100.00
70015;BME280;57358;51.094;6.760;2022-10-31T00:21:25;101659.34;;;12.12;100.00
70015;BME280;57358;51.094;6.760;2022-10-31T00:23:52;101653.31;;;12.10;100.00
70015;BME280;57358;51.094;6.760;2022-10-31T00:26:19;101573.84;;;11.61;100.00
70015;BME280;57358;51.094;6.760;2022-10-31T00:28:46;101646.59;;;12.03;100.00
70015;BME280;57358;51.094;6.760;2022-10-31T00:31:12;101642.25;;;12.02;100.00
70015;BME280;57358;51.094;6.760;2022-10-31T00:33:39;101511.56;;;11.20;100.00
70015;BME280;57358;51.094;6.760;2022-10-31T00:36:08;101610.16;;;11.73;100.00
70015;BME280;57358;51.094;6.760;2022-10-31T00:38:36;101617.69;;;11.81;100.00
70015;BME280;57358;51.094;6.760;2022-10-31T00:41:03;101537.84;;;11.20;100.00
70015;BME280;57358;51.094;6.760;2022-10-31T00:43:29;101651.00;;;11.60;100.00
70015;BME280;57358;51.094;6.760;2022-10-31T00:45:56;101520.59;;;10.70;100.00
70015;BME280;57358;51.094;6.760;2022-10-31T00:48:22;101655.25;;;11.42;100.00
70015;BME280;57358;51.094;6.760;2022-10-31T00:50:49;101702.19;;;11.73;100.00
70015;BME280;57358;51.094;6.760;2022-10-31T00:53:15;101666.41;;;11.69;100.00
70015;BME280;57358;51.094;6.760;2022-10-31T00:55:41;101639.38;;;11.65;100.00
70015;BME280;57358;51.094;6.760;2022-10-31T00:58:08;101660.22;;;11.92;100.00
70015;BME280;57358;51.094;6.760;2022-10-31T01:00:34;101681.53;;;12.06;100.00
70015;BME280;57358;51.094;6.760;2022-10-31T01:03:01;101675.28;;;12.09;100.00
70015;BME280;57358;51.094;6.760;2022-10-31T01:05:28;101668.56;;;12.02;100.00
70015;BME280;57358;51.094;6.760;2022-10-31T01:07:54;101687.91;;;12.21;100.00
70015;BME280;57358;51.094;6.760;2022-10-31T01:10:21;101630.38;;;11.93;100.00
70015;BME280;57358;51.094;6.760;2022-10-31T01:12:48;101667.91;;;12.17;100.00
70015;BME280;57358;51.094;6.760;2022-10-31T01:15:18;101671.59;;;12.13;100.00
70015;BME280;57358;51.094;6.760;2022-10-31T01:17:45;101675.56;;;12.23;100.00
70015;BME280;57358;51.094;6.760;2022-10-31T01:20:14;101473.78;;;11.02;100.00
70015;BME280;57358;51.094;6.760;2022-10-31T01:22:41;101658.56;;;12.10;100.00
70015;BME280;57358;51.094;6.760;2022-10-31T01:25:11;101636.88;;;12.05;100.00
70015;BME280;57358;51.094;6.760;2022-10-31T01:27:38;101597.38;;;11.84;100.00
70015;BME280;57358;51.094;6.760;2022-10-31T01:30:05;101644.84;;;12.03;100.00
70015;BME280;57358;51.094;6.760;2022-10-31T01:32:31;101616.72;;;11.83;100.00
70015;BME280;57358;51.094;6.760;2022-10-31T01:34:58;101656.19;;;12.04;100.00
70015;BME280;57358;51.094;6.760;2022-10-31T01:37:25;101644.09;;;12.00;100.00
70015;BME280;57358;51.094;6.760;2022-10-31T01:39:51;101642.53;;;11.95;100.00
70015;BME280;57358;51.094;6.760;2022-10-31T01:42:20;101634.69;;;11.94;100.00
70015;BME280;57358;51.094;6.760;2022-10-31T01:47:24;101577.75;;;11.50;100.00
70015;BME280;57358;51.094;6.760;2022-10-31T01:49:57;101573.75;;;11.42;100.00
70015;BME280;57358;51.094;6.760;2022-10-31T01:52:37;101624.34;;;11.69;100.00
70015;BME280;57358;51.094;6.760;2022-10-31T01:55:25;101639.84;;;11.75;100.00
70015;BME280;57358;51.094;6.760;2022-10-31T01:57:59;101631.69;;;11.61;100.00
70015;BME280;57358;51.094;6.760;2022-10-31T02:00:29;101572.09;;;11.18;100.00
70015;BME280;57358;51.094;6.760;2022-10-31T02:02:56;101560.91;;;11.13;100.00
70015;BME280;57358;51.094;6.760;2022-10-31T02:05:26;101639.09;;;11.51;100.00
70015;BME280;57358;51.094;6.760;2022-10-31T02:10:30;101637.53;;;11.47;100.00
70015;BME280;57358;51.094;6.760;2022-10-31T02:12:58;101630.59;;;11.44;100.00
70015;BME280;57358;51.094;6.760;2022-10-31T02:15:26;101589.75;;;11.15;100.00
70015;BME280;57358;51.094;6.760;2022-10-31T02:17:54;101630.78;;;11.40;100.00
70015;BME280;57358;51.094;6.760;2022-10-31T02:20:23;101595.06;;;11.13;100.00
70015;BME280;57358;51.094;6.760;2022-10-31T02:31:48;101629.75;;;11.22;100.00
70015;BME280;57358;51.094;6.760;2022-10-31T02:34:21;101642.16;;;11.18;100.00
70015;BME280;57358;51.094;6.760;2022-10-31T02:37:00;101662.44;;;11.14;100.00
70015;BME280;57358;51.094;6.760;2022-10-31T02:39:37;101654.75;;;11.10;100.00
70015;BME280;57358;51.094;6.760;2022-10-31T02:42:22;101648.63;;;11.09;100.00
70015;BME280;57358;51.094;6.760;2022-10-31T02:47:42;101593.75;;;10.80;100.00
70015;BME280;57358;51.094;6.760;2022-10-31T02:50:14;101656.75;;;11.03;100.00
70015;BME280;57358;51.094;6.760;2022-10-31T02:52:42;101664.44;;;11.08;100.00
70015;BME280;57358;51.094;6.760;2022-10-31T02:57:49;101644.03;;;10.92;100.00
70015;BME280;57358;51.094;6.760;2022-10-31T03:00:18;101631.81;;;10.91;100.00
70015;BME280;57358;51.094;6.760;2022-10-31T03:03:08;101621.13;;;10.96;100.00
70015;BME280;57358;51.094;6.760;2022-10-31T03:06:06;101658.91;;;11.15;100.00
70015;BME280;57358;51.094;6.760;2022-10-31T03:11:10;101615.47;;;11.07;100.00
70015;BME280;57358;51.094;6.760;2022-10-31T03:14:20;101671.59;;;11.48;100.00
70015;BME280;57358;51.094;6.760;2022-10-31T03:16:48;101667.81;;;11.55;100.00
70015;BME280;57358;51.094;6.760;2022-10-31T03:19:20;101647.03;;;11.49;100.00
70015;BME280;57358;51.094;6.760;2022-10-31T03:21:54;101627.06;;;11.45;100.00
70015;BME280;57358;51.094;6.760;2022-10-31T03:24:26;101646.66;;;11.58;100.00
70015;BME280;57358;51.094;6.760;2022-10-31T03:26:56;101634.00;;;11.46;100.00
70015;BME280;57358;51.094;6.760;2022-10-31T03:29:28;101649.78;;;11.46;100.00
70015;BME280;57358;51.094;6.760;2022-10-31T03:32:02;101658.34;;;11.51;100.00
70015;BME280;57358;51.094;6.760;2022-10-31T03:34:31;101655.72;;;11.51;100.00
70015;BME280;57358;51.094;6.760;2022-10-31T03:37:01;101654.88;;;11.51;100.00
70015;BME280;57358;51.094;6.760;2022-10-31T03:39:30;101651.50;;;11.47;100.00
70015;BME280;57358;51.094;6.760;2022-10-31T03:42:23;101632.81;;;11.33;100.00
70015;BME280;57358;51.094;6.760;2022-10-31T03:45:05;101658.72;;;11.42;100.00
70015;BME280;57358;51.094;6.760;2022-10-31T03:47:35;101641.50;;;11.35;100.00
70015;BME280;57358;51.094;6.760;2022-10-31T03:50:04;101590.94;;;11.06;100.00
70015;BME280;57358;51.094;6.760;2022-10-31T03:52:43;101516.56;;;10.62;100.00
70015;BME280;57358;51.094;6.760;2022-10-31T03:55:25;101631.22;;;11.29;100.00
70015;BME280;57358;51.094;6.760;2022-10-31T03:58:02;101645.66;;;11.41;100.00
70015;BME280;57358;51.094;6.760;2022-10-31T04:00:31;101639.91;;;11.31;100.00
70015;BME280;57358;51.094;6.760;2022-10-31T04:03:04;101652.25;;;11.29;100.00
70015;BME280;57358;51.094;6.760;2022-10-31T04:05:32;101601.03;;;10.95;100.00
70015;BME280;57358;51.094;6.760;2022-10-31T04:08:02;101609.66;;;10.98;100.00
70015;BME280;57358;51.094;6.760;2022-10-31T04:10:31;101596.38;;;10.80;100.00
70015;BME280;57358;51.094;6.760;2022-10-31T04:13:07;101666.69;;;11.18;100.00
70015;BME280;57358;51.094;6.760;2022-10-31T04:15:36;101649.78;;;11.02;100.00
70015;BME280;57358;51.094;6.760;2022-10-31T04:18:04;101618.00;;;10.86;100.00
70015;BME280;57358;51.094;6.760;2022-10-31T04:20:33;101645.81;;;11.14;100.00
70015;BME280;57358;51.094;6.760;2022-10-31T04:23:00;101597.41;;;10.75;100.00
70015;BME280;57358;51.094;6.760;2022-10-31T04:25:27;101614.19;;;10.95;100.00
70015;BME280;57358;51.094;6.760;2022-10-31T04:27:54;101659.81;;;11.14;100.00
70015;BME280;57358;51.094;6.760;2022-10-31T04:30:21;101495.66;;;10.13;100.00
70015;BME280;57358;51.094;6.760;2022-10-31T04:32:48;101654.78;;;11.08;100.00
70015;BME280;57358;51.094;6.760;2022-10-31T04:35:14;101649.78;;;11.02;100.00
70015;BME280;57358;51.094;6.760;2022-10-31T04:37:41;101647.81;;;10.85;100.00
70015;BME280;57358;51.094;6.760;2022-10-31T04:40:08;101657.16;;;10.92;100.00
70015;BME280;57358;51.094;6.760;2022-10-31T04:42:35;101578.63;;;10.41;100.00
70015;BME280;57358;51.094;6.760;2022-10-31T04:45:02;101633.59;;;10.67;100.00
70015;BME280;57358;51.094;6.760;2022-10-31T04:47:31;101666.16;;;10.87;100.00
70015;BME280;57358;51.094;6.760;2022-10-31T04:49:58;101607.25;;;10.47;100.00
70015;BME280;57358;51.094;6.760;2022-10-31T04:52:25;101654.94;;;10.82;100.00
70015;BME280;57358;51.094;6.760;2022-10-31T04:54:51;101651.53;;;10.80;100.00
70015;BME280;57358;51.094;6.760;2022-10-31T04:57:18;101651.66;;;10.76;100.00
70015;BME280;57358;51.094;6.760;2022-10-31T04:59:44;101555.75;;;10.19;100.00
70015;BME280;57358;51.094;6.760;2022-10-31T05:02:11;101640.47;;;10.71;100.00
70015;BME280;57358;51.094;6.760;2022-10-31T05:04:37;101640.47;;;10.71;100.00
70015;BME280;57358;51.094;6.760;2022-10-31T05:07:04;101620.72;;;10.61;100.00
70015;BME280;57358;51.094;6.760;2022-10-31T05:09:30;101627.56;;;10.65;100.00
70015;BME280;57358;51.094;6.760;2022-10-31T05:11:56;101641.19;;;10.75;100.00
70015;BME280;57358;51.094;6.760;2022-10-31T05:14:23;101647.25;;;10.77;100.00
70015;BME280;57358;51.094;6.760;2022-10-31T05:16:49;101584.66;;;10.43;100.00
70015;BME280;57358;51.094;6.760;2022-10-31T05:19:16;101660.44;;;10.75;100.00
70015;BME280;57358;51.094;6.760;2022-10-31T05:21:42;101646.56;;;10.72;100.00
70015;BME280;57358;51.094;6.760;2022-10-31T05:24:09;101448.78;;;9.56;100.00
70015;BME280;57358;51.094;6.760;2022-10-31T05:26:35;101631.88;;;10.66;100.00
70015;BME280;57358;51.094;6.760;2022-10-31T05:29:01;101642.09;;;10.74;100.00
70015;BME280;57358;51.094;6.760;2022-10-31T05:31:28;101568.59;;;10.27;100.00
70015;BME280;57358;51.094;6.760;2022-10-31T05:33:54;101614.72;;;10.57;100.00
70015;BME280;57358;51.094;6.760;2022-10-31T05:36:21;101636.06;;;10.72;100.00
70015;BME280;57358;51.094;6.760;2022-10-31T05:38:47;101559.00;;;10.26;100.00
70015;BME280;57358;51.094;6.760;2022-10-31T05:41:14;101635.09;;;10.74;100.00
70015;BME280;57358;51.094;6.760;2022-10-31T05:43:40;101624.75;;;10.70;100.00
70015;BME280;57358;51.094;6.760;2022-10-31T05:46:06;101631.59;;;10.74;100.00
70015;BME280;57358;51.094;6.760;2022-10-31T05:48:33;101636.94;;;10.72;100.00
70015;BME280;57358;51.094;6.760;2022-10-31T05:50:59;101545.38;;;10.16;100.00
70015;BME280;57358;51.094;6.760;2022-10-31T05:53:25;101553.13;;;10.19;100.00
70015;BME280;57358;51.094;6.760;2022-10-31T05:55:52;101604.72;;;10.44;100.00
70015;BME280;57358;51.094;6.760;2022-10-31T05:58:18;101583.22;;;10.34;100.00
70015;BME280;57358;51.094;6.760;2022-10-31T06:00:45;101643.38;;;10.64;100.00
70015;BME280;57358;51.094;6.760;2022-10-31T06:03:11;101626.06;;;10.58;100.00
70015;BME280;57358;51.094;6.760;2022-10-31T06:05:38;101634.75;;;10.60;100.00
70015;BME280;57358;51.094;6.760;2022-10-31T06:08:04;101640.97;;;10.57;100.00
70015;BME280;57358;51.094;6.760;2022-10-31T06:10:31;101633.31;;;10.51;100.00
70015;BME280;57358;51.094;6.760;2022-10-31T06:12:57;101540.22;;;9.89;100.00
70015;BME280;57358;51.094;6.760;2022-10-31T06:15:24;101634.41;;;10.46;100.00
70015;BME280;57358;51.094;6.760;2022-10-31T06:18:05;101632.69;;;10.45;100.00
70015;BME280;57358;51.094;6.760;2022-10-31T06:20:32;101640.50;;;10.46;100.00
70015;BME280;57358;51.094;6.760;2022-10-31T06:22:59;101592.59;;;10.16;100.00
70015;BME280;57358;51.094;6.760;2022-10-31T06:25:27;101633.72;;;10.41;100.00
70015;BME280;57358;51.094;6.760;2022-10-31T06:27:54;101600.63;;;10.11;100.00
70015;BME280;57358;51.094;6.760;2022-10-31T06:30:21;101636.72;;;10.28;100.00
70015;BME280;57358;51.094;6.760;2022-10-31T06:32:47;101569.47;;;9.78;100.00
70015;BME280;57358;51.094;6.760;2022-10-31T06:35:14;101636.22;;;10.18;100.00
70015;BME280;57358;51.094;6.760;2022-10-31T06:37:40;101619.97;;;10.09;100.00
70015;BME280;57358;51.094;6.760;2022-10-31T06:40:12;101634.50;;;10.17;100.00
70015;BME280;57358;51.094;6.760;2022-10-31T06:42:38;101576.22;;;9.84;100.00
70015;BME280;57358;51.094;6.760;2022-10-31T06:45:05;101638.56;;;10.26;100.00
70015;BME280;57358;51.094;6.760;2022-10-31T06:47:31;101592.13;;;10.05;100.00
70015;BME280;57358;51.094;6.760;2022-10-31T06:50:06;101633.03;;;10.35;100.00
70015;BME280;57358;51.094;6.760;2022-10-31T06:52:33;101568.63;;;10.02;100.00
70015;BME280;57358;51.094;6.760;2022-10-31T06:54:59;101630.75;;;10.50;100.00
70015;BME280;57358;51.094;6.760;2022-10-31T06:57:26;101641.81;;;10.58;100.00
70015;BME280;57358;51.094;6.760;2022-10-31T06:59:52;101580.13;;;10.23;100.00
70015;BME280;57358;51.094;6.760;2022-10-31T07:02:18;101645.88;;;10.67;100.00
70015;BME280;57358;51.094;6.760;2022-10-31T07:04:45;101660.63;;;10.71;100.00
70015;BME280;57358;51.094;6.760;2022-10-31T07:07:11;101603.88;;;10.43;100.00
70015;BME280;57358;51.094;6.760;2022-10-31T07:09:38;101649.03;;;10.76;100.00
70015;BME280;57358;51.094;6.760;2022-10-31T07:12:04;101655.13;;;10.77;100.00
70015;BME280;57358;51.094;6.760;2022-10-31T07:14:31;101563.59;;;10.21;100.00
70015;BME280;57358;51.094;6.760;2022-10-31T07:16:57;101655.06;;;10.78;100.00
70015;BME280;57358;51.094;6.760;2022-10-31T07:19:24;101616.50;;;10.57;100.00
70015;BME280;57358;51.094;6.760;2022-10-31T07:21:50;101598.31;;;10.52;100.00
70015;BME280;57358;51.094;6.760;2022-10-31T07:24:16;101640.13;;;10.81;100.00
70015;BME280;57358;51.094;6.760;2022-10-31T07:26:43;101652.66;;;10.96;100.00
70015;BME280;57358;51.094;6.760;2022-10-31T07:29:09;101647.34;;;10.97;100.00
70015;BME280;57358;51.094;6.760;2022-10-31T07:31:36;101656.19;;;10.95;100.00
70015;BME280;57358;51.094;6.760;2022-10-31T07:34:02;101654.13;;;11.03;100.00
70015;BME280;57358;51.094;6.760;2022-10-31T07:36:29;101606.00;;;10.81;100.00
70015;BME280;57358;51.094;6.760;2022-10-31T07:38:55;101609.22;;;10.87;100.00
70015;BME280;57358;51.094;6.760;2022-10-31T07:41:21;101655.25;;;11.20;100.00
70015;BME280;57358;51.094;6.760;2022-10-31T07:43:48;101569.34;;;10.77;100.00
70015;BME280;57358;51.094;6.760;2022-10-31T07:46:14;101654.44;;;11.40;100.00
70015;BME280;57358;51.094;6.760;2022-10-31T07:48:41;101656.63;;;11.50;100.00
70015;BME280;57358;51.094;6.760;2022-10-31T07:51:07;101656.25;;;11.60;100.00
70015;BME280;57358;51.094;6.760;2022-10-31T07:53:33;101642.06;;;11.64;100.00
70015;BME280;57358;51.094;6.760;2022-10-31T07:56:00;101640.91;;;11.71;100.00
70015;BME280;57358;51.094;6.760;2022-10-31T07:58:26;101621.03;;;11.64;100.00
70015;BME280;57358;51.094;6.760;2022-10-31T08:00:53;101631.78;;;11.80;100.00
70015;BME280;57358;51.094;6.760;2022-10-31T08:03:19;101633.34;;;11.84;100.00
70015;BME280;57358;51.094;6.760;2022-10-31T08:05:46;101616.84;;;11.80;100.00
70015;BME280;57358;51.094;6.760;2022-10-31T08:08:13;101633.06;;;11.91;100.00
70015;BME280;57358;51.094;6.760;2022-10-31T08:10:40;101630.75;;;12.04;100.00
70015;BME280;57358;51.094;6.760;2022-10-31T08:13:11;101630.47;;;12.10;100.00
70015;BME280;57358;51.094;6.760;2022-10-31T08:15:38;101627.16;;;12.07;100.00
70015;BME280;57358;51.094;6.760;2022-10-31T08:18:14;101617.25;;;12.12;100.00
70015;BME280;57358;51.094;6.760;2022-10-31T08:20:42;101619.75;;;12.15;100.00
70015;BME280;57358;51.094;6.760;2022-10-31T08:23:10;101580.13;;;11.99;100.00
70015;BME280;57358;51.094;6.760;2022-10-31T08:25:37;101610.25;;;12.31;100.00
70015;BME280;57358;51.094;6.760;2022-10-31T08:28:06;101619.09;;;12.49;100.00
70015;BME280;57358;51.094;6.760;2022-10-31T08:30:35;101614.97;;;12.44;100.00
70015;BME280;57358;51.094;6.760;2022-10-31T08:33:10;101620.84;;;12.69;100.00
70015;BME280;57358;51.094;6.760;2022-10-31T08:35:37;101605.16;;;12.66;100.00
70015;BME280;57358;51.094;6.760;2022-10-31T08:38:04;101568.84;;;12.54;100.00
70015;BME280;57358;51.094;6.760;2022-10-31T08:40:32;101598.81;;;12.70;100.00
70015;BME280;57358;51.094;6.760;2022-10-31T08:43:00;101633.19;;;13.05;100.00
70015;BME280;57358;51.094;6.760;2022-10-31T08:45:28;101633.56;;;12.97;100.00
70015;BME280;57358;51.094;6.760;2022-10-31T08:48:03;101625.66;;;12.97;100.00
70015;BME280;57358;51.094;6.760;2022-10-31T08:50:33;101617.03;;;12.94;100.00
70015;BME280;57358;51.094;6.760;2022-10-31T08:53:04;101545.22;;;12.71;100.00
70015;BME280;57358;51.094;6.760;2022-10-31T08:55:36;101598.47;;;13.14;100.00
70015;BME280;57358;51.094;6.760;2022-10-31T08:58:04;101629.81;;;13.40;100.00
70015;BME280;57358;51.094;6.760;2022-10-31T09:00:32;101578.78;;;13.04;100.00
70015;BME280;57358;51.094;6.760;2022-10-31T09:03:00;101628.34;;;13.34;100.00
70015;BME280;57358;51.094;6.760;2022-10-31T09:05:27;101582.38;;;13.21;100.00
70015;BME280;57358;51.094;6.760;2022-10-31T09:07:58;101625.03;;;13.65;100.00
70015;BME280;57358;51.094;6.760;2022-10-31T09:10:27;101632.72;;;13.70;100.00
70015;BME280;57358;51.094;6.760;2022-10-31T09:13:11;101598.88;;;13.61;100.00
70015;BME280;57358;51.094;6.760;2022-10-31T09:15:41;101629.59;;;13.96;100.00
70015;BME280;57358;51.094;6.760;2022-10-31T09:18:08;101571.97;;;13.71;100.00
70015;BME280;57358;51.094;6.760;2022-10-31T09:20:36;101646.00;;;14.19;100.00
70015;BME280;57358;51.094;6.760;2022-10-31T09:23:09;101639.25;;;14.31;100.00
70015;BME280;57358;51.094;6.760;2022-10-31T09:25:36;101565.56;;;13.93;100.00
70015;BME280;57358;51.094;6.760;2022-10-31T09:28:04;101601.28;;;14.33;100.00
70015;BME280;57358;51.094;6.760;2022-10-31T09:30:33;101634.50;;;14.71;100.00
70015;BME280;57358;51.094;6.760;2022-10-31T09:33:04;101623.34;;;14.66;100.00
70015;BME280;57358;51.094;6.760;2022-10-31T09:35:31;101627.53;;;14.86;100.00
70015;BME280;57358;51.094;6.760;2022-10-31T09:38:00;101622.59;;;14.80;100.00
70015;BME280;57358;51.094;6.760;2022-10-31T09:45:39;101615.66;;;14.93;100.00
70015;BME280;57358;51.094;6.760;2022-10-31T09:51:23;101573.56;;;14.90;100.00
70015;BME280;57358;51.094;6.760;2022-10-31T09:54:02;101548.59;;;14.80;100.00
70015;BME280;57358;51.094;6.760;2022-10-31T09:56:31;101608.13;;;15.17;100.00
70015;BME280;57358;51.094;6.760;2022-10-31T09:59:00;101541.75;;;14.91;100.00
70015;BME280;57358;51.094;6.760;2022-10-31T10:01:45;101590.97;;;15.40;100.00
70015;BME280;57358;51.094;6.760;2022-10-31T10:07:21;101590.91;;;15.56;100.00
70015;BME280;57358;51.094;6.760;2022-10-31T10:09:49;101522.41;;;15.21;100.00
70015;BME280;57358;51.094;6.760;2022-10-31T10:12:57;101541.47;;;15.42;100.00
70015;BME280;57358;51.094;6.760;2022-10-31T10:18:45;101555.53;;;15.87;100.00
70015;BME280;57358;51.094;6.760;2022-10-31T10:29:41;101519.25;;;15.75;100.00
70015;BME280;57358;51.094;6.760;2022-10-31T10:32:19;101533.22;;;15.91;100.00
70015;BME280;57358;51.094;6.760;2022-10-31T10:34:54;101496.00;;;15.80;100.00
70015;BME280;57358;51.094;6.760;2022-10-31T10:37:38;101508.19;;;15.97;100.00
70015;BME280;57358;51.094;6.760;2022-10-31T10:40:13;101486.91;;;15.99;99.00
70015;BME280;57358;51.094;6.760;2022-10-31T10:42:45;101478.56;;;16.19;99.06
70015;BME280;57358;51.094;6.760;2022-10-31T10:45:37;101526.75;;;16.53;98.25
70015;BME280;57358;51.094;6.760;2022-10-31T10:48:40;101485.72;;;16.46;98.74
70015;BME280;57358;51.094;6.760;2022-10-31T10:51:18;101511.38;;;16.72;98.56
70015;BME280;57358;51.094;6.760;2022-10-31T10:54:19;101526.78;;;17.07;97.75
70015;BME280;57358;51.094;6.760;2022-10-31T10:59:38;101511.75;;;17.21;91.05
70015;BME280;57358;51.094;6.760;2022-10-31T11:02:17;101524.75;;;17.38;90.34
70015;BME280;57358;51.094;6.760;2022-10-31T11:04:45;101517.63;;;17.39;89.81
70015;BME280;57358;51.094;6.760;2022-10-31T11:07:13;101437.88;;;17.02;88.57
70015;BME280;57358;51.094;6.760;2022-10-31T11:09:40;101495.75;;;17.35;88.97
70015;BME280;57358;51.094;6.760;2022-10-31T11:12:22;101489.50;;;17.36;88.83
70015;BME280;57358;51.094;6.760;2022-10-31T11:14:53;101486.09;;;17.34;88.28
70015;BME280;57358;51.094;6.760;2022-10-31T11:17:29;101479.63;;;17.38;89.30
70015;BME280;57358;51.094;6.760;2022-10-31T11:22:47;101484.31;;;17.73;88.97
70015;BME280;57358;51.094;6.760;2022-10-31T11:25:24;101489.41;;;17.89;87.64
70015;BME280;57358;51.094;6.760;2022-10-31T11:28:09;101473.75;;;18.10;86.20
70015;BME280;57358;51.094;6.760;2022-10-31T11:30:43;101458.88;;;18.20;84.64
70015;BME280;57358;51.094;6.760;2022-10-31T11:33:17;101462.84;;;18.39;83.54
70015;BME280;57358;51.094;6.760;2022-10-31T11:35:47;101444.69;;;18.32;82.87
70015;BME280;57358;51.094;6.760;2022-10-31T11:38:21;101379.66;;;18.01;82.14
70015;BME280;57358;51.094;6.760;2022-10-31T11:41:00;101429.41;;;18.47;81.45
70015;BME280;57358;51.094;6.760;2022-10-31T11:43:29;101403.56;;;18.25;81.85
70015;BME280;57358;51.094;6.760;2022-10-31T11:45:56;101383.44;;;18.10;82.11
70015;BME280;57358;51.094;6.760;2022-10-31T11:48:24;101381.28;;;18.15;82.21
70015;BME280;57358;51.094;6.760;2022-10-31T11:50:56;101409.00;;;18.48;81.81
70015;BME280;57358;51.094;6.760;2022-10-31T11:53:28;101394.91;;;18.59;81.09
70015;BME280;57358;51.094;6.760;2022-10-31T11:58:33;101326.03;;;18.20;79.66
70015;BME280;57358;51.094;6.760;2022-10-31T12:00:59;101380.03;;;18.56;80.98
70015;BME280;57358;51.094;6.760;2022-10-31T12:06:05;101217.41;;;17.80;79.87
70015;BME280;57358;51.094;6.760;2022-10-31T12:08:35;101361.78;;;18.98;78.77
70015;BME280;57358;51.094;6.760;2022-10-31T12:11:17;101347.91;;;18.95;76.41
70015;BME280;57358;51.094;6.760;2022-10-31T12:16:34;101315.56;;;18.77;75.85
70015;BME280;57358;51.094;6.760;2022-10-31T12:21:59;101321.69;;;19.12;76.37
70015;BME280;57358;51.094;6.760;2022-10-31T12:25:05;101321.31;;;19.06;76.27
70015;BME280;57358;51.094;6.760;2022-10-31T12:27:55;101310.56;;;19.07;75.69
70015;BME280;57358;51.094;6.760;2022-10-31T12:30:40;101303.41;;;19.08;75.85
70015;BME280;57358;51.094;6.760;2022-10-31T12:36:08;101249.66;;;18.58;76.12
70015;BME280;57358;51.094;6.760;2022-10-31T12:41:43;101139.16;;;17.97;76.20
70015;BME280;57358;51.094;6.760;2022-10-31T12:47:03;101269.59;;;18.63;78.00
70015;BME280;57358;51.094;6.760;2022-10-31T12:49:43;101250.75;;;18.55;78.16
70015;BME280;57358;51.094;6.760;2022-10-31T13:00:14;101250.28;;;18.14;81.92
70015;BME280;57358;51.094;6.760;2022-10-31T13:07:55;101214.16;;;18.01;82.52
70015;BME280;57358;51.094;6.760;2022-10-31T13:10:33;101232.28;;;18.07;82.82
70015;BME280;57358;51.094;6.760;2022-10-31T13:16:11;101191.91;;;18.02;82.37
70015;BME280;57358;51.094;6.760;2022-10-31T13:18:47;101220.59;;;18.21;81.97
70015;BME280;57358;51.094;6.760;2022-10-31T13:21:25;101212.13;;;18.16;80.52
70015;BME280;57358;51.094;6.760;2022-10-31T13:23:52;101218.69;;;18.23;80.52
70015;BME280;57358;51.094;6.760;2022-10-31T13:26:32;101224.00;;;18.23;80.77
70015;BME280;57358;51.094;6.760;2022-10-31T13:29:20;101218.31;;;18.27;80.78
70015;BME280;57358;51.094;6.760;2022-10-31T13:31:52;101194.09;;;18.08;81.02
70015;BME280;57358;51.094;6.760;2022-10-31T13:34:37;101224.28;;;18.42;80.85
70015;BME280;57358;51.094;6.760;2022-10-31T13:40:01;101205.44;;;18.57;80.03
70015;BME280;57358;51.094;6.760;2022-10-31T13:42:55;101194.09;;;18.54;80.34
70015;BME280;57358;51.094;6.760;2022-10-31T13:45:25;101176.81;;;18.49;80.21
70015;BME280;57358;51.094;6.760;2022-10-31T13:50:59;101167.28;;;18.46;80.01
70015;BME280;57358;51.094;6.760;2022-10-31T13:53:58;101167.97;;;18.37;80.66
70015;BME280;57358;51.094;6.760;2022-10-31T13:56:30;101175.91;;;18.26;80.11
70015;BME280;57358;51.094;6.760;2022-10-31T14:01:33;101182.09;;;18.26;81.58
70015;BME280;57358;51.094;6.760;2022-10-31T14:04:14;101124.56;;;18.03;81.75
70015;BME280;57358;51.094;6.760;2022-10-31T14:06:54;101154.31;;;18.30;82.20
70015;BME280;57358;51.094;6.760;2022-10-31T14:09:25;101148.88;;;18.32;81.22
70015;BME280;57358;51.094;6.760;2022-10-31T14:11:52;101142.50;;;18.34;80.26
70015;BME280;57358;51.094;6.760;2022-10-31T14:14:20;101136.09;;;18.37;81.05
70015;BME280;57358;51.094;6.760;2022-10-31T14:16:55;101136.19;;;18.36;81.08
70015;BME280;57358;51.094;6.760;2022-10-31T14:19:22;101124.84;;;18.33;80.16
70015;BME280;57358;51.094;6.760;2022-10-31T14:21:50;101117.34;;;18.27;81.04
70015;BME280;57358;51.094;6.760;2022-10-31T14:27:01;101039.09;;;17.86;80.66
70015;BME280;57358;51.094;6.760;2022-10-31T14:29:29;101049.47;;;17.89;80.07
70015;BME280;57358;51.094;6.760;2022-10-31T14:34:35;101013.91;;;17.68;81.07
70015;BME280;57358;51.094;6.760;2022-10-31T14:45:31;101029.88;;;17.79;80.05
70015;BME280;57358;51.094;6.760;2022-10-31T14:50:44;101055.03;;;17.98;81.24
70015;BME280;57358;51.094;6.760;2022-10-31T14:53:17;100998.13;;;17.66;81.31